ULLI Airport Information

Runway Information
Runway 10L Length 11146 ft width 197 ft
Elevation 59 ft Threshold 0 ft Heading 106
Runway 28R Length 11146 ft Width 197 ft
Elevation 66 ft Threshold 0 ft Heading 286
Runway 10R Length 12402 ft width 197 ft
Elevation 66 ft Threshold 0 ft Heading 106
Runway 28L Length 12402 ft Width 197 ft
Elevation 79 ft Threshold 0 ft Heading 286
Airport Frequencies
Type APP Name PETERBURG Frequency 129.8 MHZ
Type ATIS Name ATIS Frequency 127.3 MHZ
Type GND Name TAXIING Frequency 121.7 MHZ
Type RDR Name KRUG Frequency 120.3 MHZ
Type TWR Name TWR Frequency 118.1 MHZ
Airport Navaids
Type NDB Name Pulkovo Frequency 342 KHZ
Type NDB Name Pulkovo Frequency 525 KHZ
Type NDB Name Pulkovo Frequency 277 KHZ
Type NDB Name Pulkovo Frequency 303 KHZ
Type VOR-DME Name Sankt-Peterburg Frequency 113400 KHZ
Airport Weather Information & NOTAM
ADDS - METARS form results

(2021 UTC 23 April 2019)
Data provider http://aviationweather.gov/metar/data/
 
METAR text: ULLI 232000Z 24003MPS CAVOK 12/01 Q1027 R28L/090060 NOSIG
Conditions at: ULLI (ST PETERSBURG , RU) observed 2000 UTC 23 April 2019
Temperature: 12.0°C (54°F)
Dewpoint: 1.0°C (34°F) [RH = 47%]
Pressure (altimeter): 30.32 inches Hg (1027.0 mb)
Winds: from the WSW (240 degrees) at 7 MPH (6 knots; 3.1 m/s)
Visibility: 6 or more miles (10+ km)
Ceiling: ceiling and visibility are OK
Clouds: unknown
Weather: no significant weather observed at this time

METAR text: ULLI 231930Z 24002MPS 210V270 CAVOK 12/01 Q1027 R28L/090060 NOSIG
Conditions at: ULLI (ST PETERSBURG , RU) observed 1930 UTC 23 April 2019
Temperature: 12.0°C (54°F)
Dewpoint: 1.0°C (34°F) [RH = 47%]
Pressure (altimeter): 30.32 inches Hg (1027.0 mb)
Winds: from the WSW (240 degrees) at 5 MPH (4 knots; 2.1 m/s)
Visibility: 6 or more miles (10+ km)
Ceiling: ceiling and visibility are OK
Clouds: unknown
Weather: no significant weather observed at this time

Forecast for: ULLI (ST PETERSBURG , RU)
Text: TAF ULLI 231956Z 2321/2421 26003G08MPS 9999 NSC
Forecast period: 2100 UTC 23 April 2019 to 2100 UTC 24 April 2019
Forecast type: FROM: standard forecast or significant change
Winds: from the W (260 degrees) at 7 MPH (6 knots; 3.1 m/s)
gusting to 18 MPH (16 knots; 8.2 m/s)
Visibility: 6 or more miles 10+ km)
Ceiling: unknown
Clouds: missing
Weather: no significant weather forecast for this period
Text: TEMPO 2400/2405 3100 BR
Forecast period: 0000 to 0500 UTC 24 April 2019
Forecast type: TEMPORARY: The following changes expected for less than half the time period
Visibility: 1.93 miles (3.11 km)
Ceiling: unknown
Clouds: missing
Weather: BR  (mist)
Text: TEMPO 2409/2418 31004G09MPS
Forecast period: 0900 to 1800 UTC 24 April 2019
Forecast type: TEMPORARY: The following changes expected for less than half the time period
Winds: from the NW (310 degrees) at 9 MPH (8 knots; 4.1 m/s)
gusting to 20 MPH (17 knots; 8.7 m/s)
Visibility: missing
Ceiling: unknown
Clouds: missing
Weather: no significant weather forecast for this period